Time;durP1;ratioP1;P1;durP2;ratioP2;P2;SDS_P1;SDS_P2;PMS_P1;PMS_P2;Temp;Humidity;BMP_temperature;BMP_pressure;BME280_temperature;BME280_humidity;BME280_pressure;Samples;Min_cycle;Max_cycle;Signal;HPM_P1;HPM_P2
2022/11/11 00:00:57;;;;;;;;;33.00;27.67;;;;;;;;4979098;28;45343;-63
2022/11/11 00:03:23;;;;;;;;;38.00;30.67;;;;;;;;4979356;28;45363;-63
2022/11/11 00:05:48;;;;;;;;;31.67;27.67;;;;;;;;4979334;28;45292;-62
2022/11/11 00:08:13;;;;;;;;;37.00;30.00;;;;;;;;4979005;28;45414;-62
2022/11/11 00:10:39;;;;;;;;;35.33;30.67;;;;;;;;4979172;28;45313;-63
2022/11/11 00:13:05;;;;;;;;;39.33;29.67;;;;;;;;4979067;28;45296;-62
2022/11/11 00:15:30;;;;;;;;;31.67;29.33;;;;;;;;4979366;28;45307;-63
2022/11/11 00:26:09;;;;;;;;;40.67;29.67;;;;;;;;4979144;28;45307;-62
2022/11/11 00:28:34;;;;;;;;;34.33;32.00;;;;;;;;4978997;28;45322;-62
2022/11/11 00:31:07;;;;;;;;;28.00;26.67;;;;;;;;4978871;28;45307;-62
2022/11/11 00:33:32;;;;;;;;;35.67;25.67;;;;;;;;4979178;28;45334;-63
2022/11/11 00:35:58;;;;;;;;;31.33;26.67;;;;;;;;4978875;28;45505;-63
2022/11/11 00:41:07;;;;;;;;;32.33;29.00;;;;;;;;4978485;28;45150;-62
2022/11/11 00:43:32;;;;;;;;;35.33;28.67;;;;;;;;4978890;28;45300;-62
2022/11/11 00:50:57;;;;;;;;;29.67;27.00;;;;;;;;4979023;28;45183;-62
2022/11/11 00:51:27;;;;;;;;;31.33;25.00;;;;;;;;4978294;28;45300;-62
2022/11/11 00:53:52;;;;;;;;;27.33;25.67;;;;;;;;4978860;28;45419;-62
2022/11/11 00:56:17;;;;;;;;;31.00;29.00;;;;;;;;4978834;28;45257;-63
2022/11/11 00:58:42;;;;;;;;;37.33;30.00;;;;;;;;4978521;28;45455;-62
2022/11/11 01:01:07;;;;;;;;;37.33;28.00;;;;;;;;4960138;28;45328;-62
2022/11/11 01:03:33;;;;;;;;;25.33;22.33;;;;;;;;4978279;28;45330;-62
2022/11/11 01:06:02;;;;;;;;;26.00;25.00;;;;;;;;4978754;28;45331;-62
2022/11/11 01:08:27;;;;;;;;;34.00;27.00;;;;;;;;4978225;28;46607;-62
2022/11/11 01:10:52;;;;;;;;;34.33;27.67;;;;;;;;4978574;28;45380;-62
2022/11/11 01:13:19;;;;;;;;;35.33;26.33;;;;;;;;4978404;28;45287;-62
2022/11/11 01:15:46;;;;;;;;;34.67;28.33;;;;;;;;4978545;28;45505;-62
2022/11/11 01:18:12;;;;;;;;;36.33;30.33;;;;;;;;4978229;28;46503;-62
2022/11/11 01:20:38;;;;;;;;;35.00;29.67;;;;;;;;4977995;28;45540;-62
2022/11/11 01:23:03;;;;;;;;;31.33;25.00;;;;;;;;4978315;28;45394;-62
2022/11/11 01:25:32;;;;;;;;;31.33;25.67;;;;;;;;4978395;28;45239;-62
2022/11/11 01:27:57;;;;;;;;;34.33;31.33;;;;;;;;4977955;28;46724;-62
2022/11/11 01:30:23;;;;;;;;;36.67;29.33;;;;;;;;4978111;28;45417;-62
2022/11/11 01:32:48;;;;;;;;;34.00;27.33;;;;;;;;4978202;28;45330;-62
2022/11/11 01:35:13;;;;;;;;;32.33;29.00;;;;;;;;4978296;28;45418;-62
2022/11/11 01:37:38;;;;;;;;;30.00;27.00;;;;;;;;4977904;28;45723;-62
2022/11/11 01:40:04;;;;;;;;;29.67;23.00;;;;;;;;4977541;28;45705;-62
2022/11/11 01:42:29;;;;;;;;;28.67;23.33;;;;;;;;4978047;28;45263;-62
2022/11/11 01:44:54;;;;;;;;;38.33;31.33;;;;;;;;4977973;28;45351;-62
2022/11/11 01:47:20;;;;;;;;;34.33;29.33;;;;;;;;4977797;28;45762;-62
2022/11/11 01:49:54;;;;;;;;;31.67;30.00;;;;;;;;4977687;28;45440;-62
2022/11/11 01:52:29;;;;;;;;;32.00;29.33;;;;;;;;4976916;28;45309;-63
2022/11/11 01:55:03;;;;;;;;;35.67;29.67;;;;;;;;4977881;28;45453;-62
2022/11/11 01:57:37;;;;;;;;;33.33;26.33;;;;;;;;4977822;28;45312;-62
2022/11/11 02:00:05;;;;;;;;;26.67;24.33;;;;;;;;4977649;28;45429;-62
2022/11/11 02:02:39;;;;;;;;;29.00;25.33;;;;;;;;4977595;28;45329;-63
2022/11/11 02:07:52;;;;;;;;;32.33;26.00;;;;;;;;4977452;28;45454;-62
2022/11/11 02:10:20;;;;;;;;;30.00;24.33;;;;;;;;4977520;28;45446;-62
2022/11/11 02:15:29;;;;;;;;;30.33;26.67;;;;;;;;4977575;28;45506;-62
2022/11/11 02:17:54;;;;;;;;;30.33;25.33;;;;;;;;4977370;28;46183;-63
2022/11/11 02:20:22;;;;;;;;;34.67;24.33;;;;;;;;4977377;28;45423;-62
2022/11/11 02:22:49;;;;;;;;;30.67;26.67;;;;;;;;4977620;28;45314;-62
2022/11/11 02:25:17;;;;;;;;;27.33;24.67;;;;;;;;4977504;28;45371;-62
2022/11/11 02:27:45;;;;;;;;;27.67;25.67;;;;;;;;4977250;28;45661;-62
2022/11/11 02:30:14;;;;;;;;;25.00;21.67;;;;;;;;4977361;28;45386;-62
2022/11/11 02:32:43;;;;;;;;;28.67;25.33;;;;;;;;4977325;28;45318;-62
2022/11/11 02:35:13;;;;;;;;;27.67;22.33;;;;;;;;4977524;28;45484;-62
2022/11/11 02:37:38;;;;;;;;;37.67;29.00;;;;;;;;4977099;28;45338;-62
2022/11/11 02:40:06;;;;;;;;;27.33;22.67;;;;;;;;4977095;28;45435;-62
2022/11/11 02:42:33;;;;;;;;;27.67;24.00;;;;;;;;4977409;28;45465;-62
2022/11/11 02:44:59;;;;;;;;;31.67;27.00;;;;;;;;4977466;28;45429;-62
2022/11/11 02:47:25;;;;;;;;;33.33;29.33;;;;;;;;4976944;28;46519;-62
2022/11/11 02:49:50;;;;;;;;;28.00;26.33;;;;;;;;4977107;28;45355;-62
2022/11/11 02:52:15;;;;;;;;;30.67;22.67;;;;;;;;4976799;28;45343;-62
2022/11/11 02:54:42;;;;;;;;;31.00;31.00;;;;;;;;4977385;28;45200;-62
2022/11/11 02:57:07;;;;;;;;;28.33;24.00;;;;;;;;4976993;28;47533;-62
2022/11/11 02:59:37;;;;;;;;;27.00;22.00;;;;;;;;4959318;28;45369;-62
2022/11/11 03:02:02;;;;;;;;;36.33;31.33;;;;;;;;4977133;28;45378;-62
2022/11/11 03:04:27;;;;;;;;;32.33;28.33;;;;;;;;4980372;28;45408;-62
2022/11/11 03:06:52;;;;;;;;;31.33;26.00;;;;;;;;4980011;28;47277;-62
2022/11/11 03:09:18;;;;;;;;;31.33;29.33;;;;;;;;4980309;28;45240;-62
2022/11/11 03:11:43;;;;;;;;;30.67;27.33;;;;;;;;4980407;28;45501;-62
2022/11/11 03:14:08;;;;;;;;;36.67;29.33;;;;;;;;4980557;28;45346;-62
2022/11/11 03:19:17;;;;;;;;;31.00;28.00;;;;;;;;4980126;28;45264;-62
2022/11/11 03:21:42;;;;;;;;;37.00;31.00;;;;;;;;4979978;28;45292;-63
2022/11/11 03:24:07;;;;;;;;;25.00;23.00;;;;;;;;4980408;28;45252;-62
2022/11/11 03:26:33;;;;;;;;;32.00;30.00;;;;;;;;4979907;28;46360;-62
2022/11/11 03:28:58;;;;;;;;;30.67;25.33;;;;;;;;4980143;28;45295;-62
2022/11/11 03:31:23;;;;;;;;;36.67;30.00;;;;;;;;4979884;28;45300;-62
2022/11/11 03:33:48;;;;;;;;;36.00;27.67;;;;;;;;4980243;28;45279;-62
2022/11/11 03:36:14;;;;;;;;;31.67;28.00;;;;;;;;4979812;28;45488;-62
2022/11/11 03:38:39;;;;;;;;;31.67;28.00;;;;;;;;4979569;28;45461;-62
2022/11/11 03:41:04;;;;;;;;;35.33;31.00;;;;;;;;4979952;28;45359;-62
2022/11/11 03:43:30;;;;;;;;;36.67;30.67;;;;;;;;4980037;28;45303;-62
2022/11/11 03:45:57;;;;;;;;;28.00;25.00;;;;;;;;4979526;28;46311;-62
2022/11/11 03:48:23;;;;;;;;;30.00;27.00;;;;;;;;4979668;28;45379;-62
2022/11/11 03:50:49;;;;;;;;;33.67;27.00;;;;;;;;4979592;28;45371;-62
2022/11/11 03:53:14;;;;;;;;;38.67;30.00;;;;;;;;4979454;28;45450;-62
2022/11/11 03:55:40;;;;;;;;;28.67;23.33;;;;;;;;4979319;28;46438;-62
2022/11/11 03:58:05;;;;;;;;;27.33;22.67;;;;;;;;4979503;28;45433;-62
2022/11/11 04:00:31;;;;;;;;;33.00;25.67;;;;;;;;4979745;28;45448;-62
2022/11/11 04:11:17;;;;;;;;;24.00;21.00;;;;;;;;4979352;28;45457;-62
2022/11/11 04:16:29;;;;;;;;;34.67;27.67;;;;;;;;4979069;28;45294;-62
2022/11/11 04:21:44;;;;;;;;;36.67;29.67;;;;;;;;4979167;28;45422;-62
2022/11/11 04:27:01;;;;;;;;;22.00;20.00;;;;;;;;4978740;28;45350;-62
2022/11/11 04:29:27;;;;;;;;;29.00;24.33;;;;;;;;4978806;28;45387;-62
2022/11/11 04:34:36;;;;;;;;;32.00;25.00;;;;;;;;4979132;28;45429;-62
2022/11/11 04:37:01;;;;;;;;;27.33;23.67;;;;;;;;4978716;28;45356;-62
2022/11/11 04:42:10;;;;;;;;;26.67;22.67;;;;;;;;4978792;28;45247;-62
2022/11/11 04:47:19;;;;;;;;;35.00;23.67;;;;;;;;4978680;28;45869;-62
2022/11/11 04:49:44;;;;;;;;;31.00;26.00;;;;;;;;4978602;28;45324;-62
2022/11/11 04:52:25;;;;;;;;;29.00;22.33;;;;;;;;4978573;28;45432;-62
2022/11/11 04:57:34;;;;;;;;;26.67;22.33;;;;;;;;4978461;28;45346;-62
2022/11/11 04:59:59;;;;;;;;;30.67;23.00;;;;;;;;4978478;28;45402;-62
2022/11/11 05:05:08;;;;;;;;;23.00;20.33;;;;;;;;4978787;28;45223;-62
2022/11/11 05:10:17;;;;;;;;;28.33;22.00;;;;;;;;4978207;28;45295;-62
2022/11/11 05:12:45;;;;;;;;;31.33;24.67;;;;;;;;4978661;28;45148;-62
2022/11/11 05:25:23;;;;;;;;;29.33;23.00;;;;;;;;4978288;28;45460;-62
2022/11/11 05:26:07;;;;;;;;;29.33;22.00;;;;;;;;4976935;28;45538;-62
2022/11/11 05:28:32;;;;;;;;;30.00;24.33;;;;;;;;4978021;28;46523;-62
2022/11/11 05:30:58;;;;;;;;;32.00;22.00;;;;;;;;4978087;28;45292;-62
2022/11/11 05:33:23;;;;;;;;;29.67;24.33;;;;;;;;4978236;28;45433;-62
2022/11/11 05:35:48;;;;;;;;;28.00;21.00;;;;;;;;4978468;28;45236;-62
2022/11/11 05:38:19;;;;;;;;;34.33;25.67;;;;;;;;4977700;28;45553;-63
2022/11/11 05:40:44;;;;;;;;;33.67;27.67;;;;;;;;4977989;28;45438;-62
2022/11/11 05:43:09;;;;;;;;;31.00;27.67;;;;;;;;4978031;28;45295;-61
2022/11/11 05:45:35;;;;;;;;;34.33;27.67;;;;;;;;4978124;28;45432;-62
2022/11/11 05:48:00;;;;;;;;;33.00;28.67;;;;;;;;4977982;28;45406;-62
2022/11/11 05:50:26;;;;;;;;;35.67;30.33;;;;;;;;4977604;28;45426;-62
2022/11/11 05:52:51;;;;;;;;;35.33;24.33;;;;;;;;4977847;28;45451;-62
2022/11/11 05:55:16;;;;;;;;;26.00;24.33;;;;;;;;4978110;28;45453;-62
2022/11/11 05:57:41;;;;;;;;;24.33;23.67;;;;;;;;4977494;28;46951;-62
2022/11/11 06:00:07;;;;;;;;;30.00;22.33;;;;;;;;4977615;28;45382;-62
2022/11/11 06:02:32;;;;;;;;;29.67;24.00;;;;;;;;4977516;28;45268;-62
2022/11/11 06:04:57;;;;;;;;;26.00;20.67;;;;;;;;4978111;28;45188;-63
2022/11/11 06:07:22;;;;;;;;;28.33;25.67;;;;;;;;4977491;28;45446;-62
2022/11/11 06:09:48;;;;;;;;;27.00;18.33;;;;;;;;4977583;28;45430;-62
2022/11/11 06:12:13;;;;;;;;;27.33;22.00;;;;;;;;4977792;28;45339;-62
2022/11/11 06:14:38;;;;;;;;;29.33;25.33;;;;;;;;4977765;28;45423;-62
2022/11/11 06:17:03;;;;;;;;;30.67;25.67;;;;;;;;4977463;28;46086;-62
2022/11/11 06:19:28;;;;;;;;;31.33;27.67;;;;;;;;4977142;28;45434;-62
2022/11/11 06:21:56;;;;;;;;;34.67;28.00;;;;;;;;4977439;28;45422;-63
2022/11/11 06:24:22;;;;;;;;;30.00;28.00;;;;;;;;4977664;28;45563;-63
2022/11/11 06:26:47;;;;;;;;;29.00;23.33;;;;;;;;4975568;28;46566;-62
2022/11/11 06:29:12;;;;;;;;;33.67;26.00;;;;;;;;4977365;28;45322;-63
2022/11/11 06:31:37;;;;;;;;;27.67;26.33;;;;;;;;4977388;28;45474;-63
2022/11/11 06:34:03;;;;;;;;;30.00;21.67;;;;;;;;4959509;28;45387;-63
2022/11/11 06:36:28;;;;;;;;;24.67;22.00;;;;;;;;4977390;28;45627;-63
2022/11/11 06:38:53;;;;;;;;;30.67;25.00;;;;;;;;4979703;28;45438;-63
2022/11/11 06:41:18;;;;;;;;;28.33;20.00;;;;;;;;4980982;28;45449;-63
2022/11/11 06:43:44;;;;;;;;;30.33;28.00;;;;;;;;4980863;28;45346;-61
2022/11/11 06:46:19;;;;;;;;;23.33;22.00;;;;;;;;4980410;28;45489;-61
2022/11/11 06:48:45;;;;;;;;;32.33;28.00;;;;;;;;4978751;28;45511;-61
2022/11/11 06:51:10;;;;;;;;;27.67;25.00;;;;;;;;4976122;28;45429;-61
2022/11/11 06:53:35;;;;;;;;;26.67;21.33;;;;;;;;4979911;28;45356;-61
2022/11/11 06:56:00;;;;;;;;;29.33;24.00;;;;;;;;4979628;28;46253;-61
2022/11/11 06:58:26;;;;;;;;;26.67;22.67;;;;;;;;4979696;28;45402;-61
2022/11/11 07:00:51;;;;;;;;;30.00;26.00;;;;;;;;4979598;28;45491;-62
2022/11/11 07:03:18;;;;;;;;;26.67;22.00;;;;;;;;4979770;28;45311;-61
2022/11/11 07:05:43;;;;;;;;;27.67;23.33;;;;;;;;4979280;28;47485;-61
2022/11/11 07:08:11;;;;;;;;;29.67;25.00;;;;;;;;4979401;28;45161;-61
2022/11/11 07:10:37;;;;;;;;;24.33;22.00;;;;;;;;4979416;28;45390;-62
2022/11/11 07:13:03;;;;;;;;;26.33;24.33;;;;;;;;4979707;28;45441;-62
2022/11/11 07:15:28;;;;;;;;;22.67;19.67;;;;;;;;4979055;28;47535;-61
2022/11/11 07:17:53;;;;;;;;;27.33;22.00;;;;;;;;4979425;28;45493;-61
2022/11/11 07:20:19;;;;;;;;;22.00;17.33;;;;;;;;4979443;28;45433;-61
2022/11/11 07:22:45;;;;;;;;;24.00;22.33;;;;;;;;4979548;28;45573;-61
2022/11/11 07:25:10;;;;;;;;;53.33;43.67;;;;;;;;4978891;28;47560;-62
2022/11/11 07:27:36;;;;;;;;;25.00;21.33;;;;;;;;4979046;28;45572;-62
2022/11/11 07:30:02;;;;;;;;;23.33;20.00;;;;;;;;4979397;28;45367;-62
2022/11/11 07:32:27;;;;;;;;;19.00;16.00;;;;;;;;4979008;28;45323;-62
2022/11/11 07:34:53;;;;;;;;;23.00;22.67;;;;;;;;4978957;28;45961;-62
2022/11/11 07:37:18;;;;;;;;;22.00;16.33;;;;;;;;4979082;28;45424;-62
2022/11/11 07:39:44;;;;;;;;;21.67;19.00;;;;;;;;4979031;28;45391;-62
2022/11/11 07:42:09;;;;;;;;;18.33;15.00;;;;;;;;4979419;28;45167;-62
2022/11/11 07:44:34;;;;;;;;;25.67;19.33;;;;;;;;4978633;28;45469;-62
2022/11/11 07:46:59;;;;;;;;;18.00;15.33;;;;;;;;4978833;28;45373;-62
2022/11/11 07:49:24;;;;;;;;;21.33;17.33;;;;;;;;4978225;28;45438;-61
2022/11/11 07:51:50;;;;;;;;;23.33;19.33;;;;;;;;4979675;28;45339;-62
2022/11/11 07:54:15;;;;;;;;;19.67;16.00;;;;;;;;4979318;28;47332;-62
2022/11/11 07:56:40;;;;;;;;;21.00;17.00;;;;;;;;4979451;28;45337;-62
2022/11/11 07:59:05;;;;;;;;;25.33;21.67;;;;;;;;4979684;28;45203;-62
2022/11/11 08:01:31;;;;;;;;;23.67;17.33;;;;;;;;4979438;28;45516;-62
2022/11/11 08:03:56;;;;;;;;;22.67;19.00;;;;;;;;4977813;28;46453;-62
2022/11/11 08:06:21;;;;;;;;;27.00;20.33;;;;;;;;4977728;28;45330;-61
2022/11/11 08:08:47;;;;;;;;;23.67;21.67;;;;;;;;4978380;28;45425;-62
2022/11/11 08:11:13;;;;;;;;;20.00;17.00;;;;;;;;4979520;28;45408;-62
2022/11/11 08:13:42;;;;;;;;;9.67;9.67;;;;;;;;4979373;28;45635;-64
2022/11/11 08:16:08;;;;;;;;;19.33;15.67;;;;;;;;4979200;28;45291;-62
2022/11/11 08:18:34;;;;;;;;;24.00;19.00;;;;;;;;4979324;28;45295;-62
2022/11/11 08:20:59;;;;;;;;;19.67;14.67;;;;;;;;4979284;28;45439;-62
2022/11/11 08:23:31;;;;;;;;;17.00;15.33;;;;;;;;4978926;28;46105;-62
2022/11/11 08:26:00;;;;;;;;;19.67;16.00;;;;;;;;4978968;28;45417;-62
2022/11/11 08:28:30;;;;;;;;;17.00;15.00;;;;;;;;4978813;28;45407;-62
2022/11/11 08:30:59;;;;;;;;;19.00;16.00;;;;;;;;4979256;28;45477;-62
2022/11/11 08:33:25;;;;;;;;;19.00;16.25;;;;;;;;4978824;28;47123;-62
2022/11/11 08:35:52;;;;;;;;;11.33;11.33;;;;;;;;4978760;28;45790;-62
2022/11/11 08:38:17;;;;;;;;;16.67;16.67;;;;;;;;4978840;28;45433;-62
2022/11/11 08:40:43;;;;;;;;;15.33;12.67;;;;;;;;4979151;28;45414;-62
2022/11/11 08:43:08;;;;;;;;;11.00;10.00;;;;;;;;4976659;28;46480;-62
2022/11/11 08:45:33;;;;;;;;;15.50;15.00;;;;;;;;4977750;28;45430;-62
2022/11/11 08:47:58;;;;;;;;;16.00;14.33;;;;;;;;4978667;28;45324;-62
2022/11/11 08:50:23;;;;;;;;;16.33;15.00;;;;;;;;4979000;28;45275;-62
2022/11/11 08:52:49;;;;;;;;;15.33;13.33;;;;;;;;4978394;28;45374;-62
2022/11/11 08:55:15;;;;;;;;;16.00;14.00;;;;;;;;4977326;28;45871;-62
2022/11/11 08:57:40;;;;;;;;;18.00;13.67;;;;;;;;4978206;28;45454;-62
2022/11/11 09:00:06;;;;;;;;;13.00;12.33;;;;;;;;4977244;28;45433;-63
2022/11/11 09:02:31;;;;;;;;;16.67;11.33;;;;;;;;4978091;28;46919;-63
2022/11/11 09:04:57;;;;;;;;;17.67;14.67;;;;;;;;4978508;28;46503;-63
2022/11/11 09:07:22;;;;;;;;;18.00;13.33;;;;;;;;4978394;28;45303;-63
2022/11/11 09:09:47;;;;;;;;;18.67;16.33;;;;;;;;4978724;28;45501;-63
2022/11/11 09:12:13;;;;;;;;;14.33;10.00;;;;;;;;4978090;28;45315;-63
2022/11/11 09:14:38;;;;;;;;;17.67;16.33;;;;;;;;4978231;28;45424;-63
2022/11/11 09:17:04;;;;;;;;;14.00;11.00;;;;;;;;4978605;28;45368;-63
2022/11/11 09:19:29;;;;;;;;;16.00;13.00;;;;;;;;4978621;28;45403;-63
2022/11/11 09:21:54;;;;;;;;;18.33;15.00;;;;;;;;4977952;28;46622;-63
2022/11/11 09:24:20;;;;;;;;;16.00;14.25;;;;;;;;4977618;28;45318;-63
2022/11/11 09:26:48;;;;;;;;;16.67;15.00;;;;;;;;4978489;28;45387;-63
2022/11/11 09:29:14;;;;;;;;;15.00;12.33;;;;;;;;4978632;28;45389;-63
2022/11/11 09:31:39;;;;;;;;;17.00;16.00;;;;;;;;4977936;28;46194;-63
2022/11/11 09:34:05;;;;;;;;;14.00;12.25;;;;;;;;4977929;28;45338;-63
2022/11/11 09:36:30;;;;;;;;;15.67;14.00;;;;;;;;4978099;28;45393;-63
2022/11/11 09:38:56;;;;;;;;;10.67;10.33;;;;;;;;4978383;28;45374;-63
2022/11/11 09:41:31;;;;;;;;;20.00;14.00;;;;;;;;4977850;28;47074;-63
2022/11/11 09:43:58;;;;;;;;;16.67;12.33;;;;;;;;4978034;28;45473;-63
2022/11/11 09:46:30;;;;;;;;;14.00;11.75;;;;;;;;4978076;28;45330;-63
2022/11/11 09:49:01;;;;;;;;;12.50;11.25;;;;;;;;4978209;28;45388;-63
2022/11/11 09:51:29;;;;;;;;;15.25;12.75;;;;;;;;4977644;28;45351;-63
2022/11/11 09:53:59;;;;;;;;;21.00;15.25;;;;;;;;4977674;28;45408;-63
2022/11/11 09:56:25;;;;;;;;;9.67;7.67;;;;;;;;4977801;28;45396;-63
2022/11/11 09:59:01;;;;;;;;;14.00;11.33;;;;;;;;4977864;28;45565;-63
2022/11/11 10:01:32;;;;;;;;;11.67;10.33;;;;;;;;4977508;28;45591;-63
2022/11/11 10:04:06;;;;;;;;;16.67;16.67;;;;;;;;4977743;28;45220;-63
2022/11/11 10:06:33;;;;;;;;;15.33;13.67;;;;;;;;4977652;28;45330;-63
2022/11/11 10:09:04;;;;;;;;;16.75;12.00;;;;;;;;4977800;28;45227;-63
2022/11/11 10:11:48;;;;;;;;;13.67;11.67;;;;;;;;4977583;28;45331;-63
2022/11/11 10:14:14;;;;;;;;;13.00;13.00;;;;;;;;4980876;28;45408;-63
2022/11/11 10:16:45;;;;;;;;;12.25;9.50;;;;;;;;4981155;28;45378;-63
2022/11/11 10:19:10;;;;;;;;;16.75;14.00;;;;;;;;4981221;28;45402;-63
2022/11/11 10:21:40;;;;;;;;;14.00;12.67;;;;;;;;4980885;28;46726;-63
2022/11/11 10:24:12;;;;;;;;;11.25;10.50;;;;;;;;4980854;28;45303;-63
2022/11/11 10:26:39;;;;;;;;;12.00;10.00;;;;;;;;4980741;28;45436;-63
2022/11/11 10:29:09;;;;;;;;;10.50;10.25;;;;;;;;4981358;28;45327;-63
2022/11/11 10:31:34;;;;;;;;;13.75;11.50;;;;;;;;4980886;28;45540;-63
2022/11/11 10:34:08;;;;;;;;;12.33;11.00;;;;;;;;4980803;28;45231;-63
2022/11/11 10:36:36;;;;;;;;;10.25;10.00;;;;;;;;4981105;28;45255;-63
2022/11/11 10:39:03;;;;;;;;;13.75;9.50;;;;;;;;4980929;28;45208;-63
2022/11/11 10:41:32;;;;;;;;;7.25;7.25;;;;;;;;4980763;28;45387;-63
2022/11/11 10:43:57;;;;;;;;;15.00;12.00;;;;;;;;4980771;28;45342;-63
2022/11/11 10:46:22;;;;;;;;;11.25;9.50;;;;;;;;4980627;28;45243;-63
2022/11/11 10:48:52;;;;;;;;;9.00;9.00;;;;;;;;4981088;28;45524;-63
2022/11/11 10:51:17;;;;;;;;;12.00;10.33;;;;;;;;4980008;28;45373;-63
2022/11/11 10:53:52;;;;;;;;;9.75;8.75;;;;;;;;4980546;28;45316;-63
2022/11/11 10:56:36;;;;;;;;;9.75;8.50;;;;;;;;4980584;28;45504;-63
2022/11/11 10:59:23;;;;;;;;;10.50;8.25;;;;;;;;4980955;28;45231;-63
2022/11/11 11:01:53;;;;;;;;;14.50;12.00;;;;;;;;4980376;28;46747;-63
2022/11/11 11:04:41;;;;;;;;;14.33;13.00;;;;;;;;4980242;28;45338;-63
2022/11/11 11:07:09;;;;;;;;;12.25;9.00;;;;;;;;4980460;28;45214;-63
2022/11/11 11:09:44;;;;;;;;;9.00;7.75;;;;;;;;4980461;28;45444;-63
2022/11/11 11:12:15;;;;;;;;;13.33;13.00;;;;;;;;4980270;28;46393;-63
2022/11/11 11:14:46;;;;;;;;;10.75;9.00;;;;;;;;4980175;28;45347;-63
2022/11/11 11:17:19;;;;;;;;;6.25;6.00;;;;;;;;4980373;28;45358;-63
2022/11/11 11:19:44;;;;;;;;;6.50;5.75;;;;;;;;4980594;28;45425;-63
2022/11/11 11:22:09;;;;;;;;;6.00;6.00;;;;;;;;4979932;28;45410;-63
2022/11/11 11:24:38;;;;;;;;;7.00;7.00;;;;;;;;4979975;28;45283;-63
2022/11/11 11:27:06;;;;;;;;;9.00;8.50;;;;;;;;4980199;28;45421;-63
2022/11/11 11:29:31;;;;;;;;;15.67;11.67;;;;;;;;4980282;28;45630;-63
2022/11/11 11:32:12;;;;;;;;;8.75;8.75;;;;;;;;4979692;28;45383;-63
2022/11/11 11:34:45;;;;;;;;;10.00;7.00;;;;;;;;4979885;28;45321;-63
2022/11/11 11:37:10;;;;;;;;;10.75;10.50;;;;;;;;4962460;28;45265;-63
2022/11/11 11:39:36;;;;;;;;;9.50;8.25;;;;;;;;4980019;28;45312;-63
2022/11/11 11:42:02;;;;;;;;;11.50;8.25;;;;;;;;4979741;28;45801;-63
2022/11/11 11:44:28;;;;;;;;;11.25;10.00;;;;;;;;4979573;28;45417;-63
2022/11/11 11:47:14;;;;;;;;;11.75;9.00;;;;;;;;4979813;28;45432;-63
2022/11/11 11:49:39;;;;;;;;;8.00;8.00;;;;;;;;4979678;28;45540;-63
2022/11/11 11:52:27;;;;;;;;;7.00;6.75;;;;;;;;4979244;28;45428;-63
2022/11/11 11:55:04;;;;;;;;;7.75;7.75;;;;;;;;4979585;28;45464;-63
2022/11/11 11:57:56;;;;;;;;;11.25;8.00;;;;;;;;4979694;28;45323;-63
2022/11/11 12:00:21;;;;;;;;;9.75;8.50;;;;;;;;4963976;28;45421;-63
2022/11/11 12:03:01;;;;;;;;;12.25;9.75;;;;;;;;4979313;28;47138;-63
2022/11/11 12:05:44;;;;;;;;;9.50;9.50;;;;;;;;4979367;28;45366;-63
2022/11/11 12:08:28;;;;;;;;;11.75;10.75;;;;;;;;4979568;28;45346;-63
2022/11/11 12:11:00;;;;;;;;;10.75;8.75;;;;;;;;4979445;28;45511;-63
2022/11/11 12:13:28;;;;;;;;;10.25;10.00;;;;;;;;4979153;28;46381;-63
2022/11/11 12:15:57;;;;;;;;;8.00;8.00;;;;;;;;4979202;28;45282;-63
2022/11/11 12:18:28;;;;;;;;;12.00;10.00;;;;;;;;4979412;28;45432;-63
2022/11/11 12:21:03;;;;;;;;;11.00;11.00;;;;;;;;4979364;28;45393;-63
2022/11/11 12:23:39;;;;;;;;;12.25;11.25;;;;;;;;4979112;28;46572;-63
2022/11/11 12:26:35;;;;;;;;;13.00;11.25;;;;;;;;4979063;28;45330;-63
2022/11/11 12:29:13;;;;;;;;;13.00;11.50;;;;;;;;4970658;28;45667;-63
2022/11/11 12:31:53;;;;;;;;;10.00;10.00;;;;;;;;4979293;28;45358;-63
2022/11/11 12:34:37;;;;;;;;;11.00;8.25;;;;;;;;4978839;28;46146;-63
2022/11/11 12:37:08;;;;;;;;;17.00;12.50;;;;;;;;4978498;28;45363;-63
2022/11/11 12:39:39;;;;;;;;;12.00;9.25;;;;;;;;4979057;28;45453;-63
2022/11/11 12:42:22;;;;;;;;;9.75;8.50;;;;;;;;4978994;28;45465;-63
2022/11/11 12:44:54;;;;;;;;;12.00;10.00;;;;;;;;4978484;28;46163;-63
2022/11/11 12:47:36;;;;;;;;;10.50;8.00;;;;;;;;4978893;28;45256;-63
2022/11/11 12:50:14;;;;;;;;;12.25;11.25;;;;;;;;4978980;28;45365;-63
2022/11/11 12:52:54;;;;;;;;;13.00;10.75;;;;;;;;4978819;28;45433;-64
2022/11/11 12:55:23;;;;;;;;;11.00;11.00;;;;;;;;4978476;28;46708;-62
2022/11/11 12:57:54;;;;;;;;;12.25;10.25;;;;;;;;4978520;28;45266;-62
2022/11/11 13:00:21;;;;;;;;;11.75;10.00;;;;;;;;4978753;28;45346;-62
2022/11/11 13:02:46;;;;;;;;;10.50;8.50;;;;;;;;4978756;28;45283;-62
2022/11/11 13:05:14;;;;;;;;;11.25;9.75;;;;;;;;4978310;28;46568;-62
2022/11/11 13:07:51;;;;;;;;;7.00;7.00;;;;;;;;4978518;28;45373;-62
2022/11/11 13:10:17;;;;;;;;;7.75;7.50;;;;;;;;4978473;28;45260;-62
2022/11/11 13:12:49;;;;;;;;;7.25;7.25;;;;;;;;4978661;28;45211;-62
2022/11/11 13:15:16;;;;;;;;;6.00;6.00;;;;;;;;4978142;28;46131;-62
2022/11/11 13:17:42;;;;;;;;;9.00;8.00;;;;;;;;4978304;28;45363;-62
2022/11/11 13:20:16;;;;;;;;;8.00;5.00;;;;;;;;4978632;28;45476;-62
2022/11/11 13:22:41;;;;;;;;;11.00;6.50;;;;;;;;4978705;28;45368;-62
2022/11/11 13:25:10;;;;;;;;;8.00;7.00;;;;;;;;4978024;28;45602;-62
2022/11/11 13:27:58;;;;;;;;;9.50;8.75;;;;;;;;4978248;28;45405;-62
2022/11/11 13:30:24;;;;;;;;;8.50;7.50;;;;;;;;4978484;28;45300;-62
2022/11/11 13:32:54;;;;;;;;;11.67;8.33;;;;;;;;4978414;28;45421;-62
2022/11/11 13:35:28;;;;;;;;;12.75;10.25;;;;;;;;4977872;28;46634;-62
2022/11/11 13:37:53;;;;;;;;;12.25;12.25;;;;;;;;4978315;28;45282;-62
2022/11/11 13:40:30;;;;;;;;;9.25;8.00;;;;;;;;4978126;28;45318;-62
2022/11/11 13:42:56;;;;;;;;;12.00;7.25;;;;;;;;4978186;28;45224;-64
2022/11/11 13:45:29;;;;;;;;;10.25;10.25;;;;;;;;4977814;28;46553;-62
2022/11/11 13:47:55;;;;;;;;;8.75;7.50;;;;;;;;4976768;28;45426;-62
2022/11/11 13:50:28;;;;;;;;;12.00;11.00;;;;;;;;4977931;28;45278;-62
2022/11/11 13:53:12;;;;;;;;;6.50;3.50;;;;;;;;4977963;28;45444;-62
2022/11/11 13:55:41;;;;;;;;;7.50;7.50;;;;;;;;4977705;28;46762;-62
2022/11/11 13:58:07;;;;;;;;;9.25;8.00;;;;;;;;4977475;28;45366;-62
2022/11/11 14:00:37;;;;;;;;;8.75;8.50;;;;;;;;4977547;28;45318;-62
2022/11/11 14:03:22;;;;;;;;;8.00;7.00;;;;;;;;4978041;28;45296;-64
2022/11/11 14:06:07;;;;;;;;;6.75;6.50;;;;;;;;4970201;28;45288;-62
2022/11/11 14:08:45;;;;;;;;;5.75;5.75;;;;;;;;4977607;28;45219;-62
2022/11/11 14:11:25;;;;;;;;;8.25;7.00;;;;;;;;4977674;28;45504;-62
2022/11/11 14:13:54;;;;;;;;;9.75;8.75;;;;;;;;4977862;28;45453;-62
2022/11/11 14:16:34;;;;;;;;;6.50;6.50;;;;;;;;4977486;28;46787;-62
2022/11/11 14:19:18;;;;;;;;;5.00;3.00;;;;;;;;4977637;28;45322;-62
2022/11/11 14:21:49;;;;;;;;;9.25;7.50;;;;;;;;4977734;28;45276;-62
2022/11/11 14:24:29;;;;;;;;;8.25;7.00;;;;;;;;4977630;28;45452;-62
2022/11/11 14:27:02;;;;;;;;;7.25;7.00;;;;;;;;4977297;28;46410;-62
2022/11/11 14:29:33;;;;;;;;;12.00;9.00;;;;;;;;4977365;28;45286;-62
2022/11/11 14:31:59;;;;;;;;;7.25;6.00;;;;;;;;4977601;28;45378;-62
2022/11/11 14:34:33;;;;;;;;;10.25;10.25;;;;;;;;4977429;28;45334;-62
2022/11/11 14:37:03;;;;;;;;;7.25;7.25;;;;;;;;4977262;28;46309;-62
2022/11/11 14:39:35;;;;;;;;;7.50;6.50;;;;;;;;4977535;28;45313;-62
2022/11/11 14:42:01;;;;;;;;;9.00;8.25;;;;;;;;4977137;28;45309;-62
2022/11/11 14:44:29;;;;;;;;;10.75;7.75;;;;;;;;4977380;28;45772;-63
2022/11/11 14:47:06;;;;;;;;;10.00;8.50;;;;;;;;4977356;28;46623;-62
2022/11/11 14:49:51;;;;;;;;;10.00;8.50;;;;;;;;4977076;28;45270;-62
2022/11/11 14:52:26;;;;;;;;;13.00;10.67;;;;;;;;4976802;28;45359;-62
2022/11/11 14:55:00;;;;;;;;;12.00;10.25;;;;;;;;4977303;28;45434;-62
2022/11/11 14:57:31;;;;;;;;;10.25;9.25;;;;;;;;4976713;28;46220;-62
2022/11/11 14:59:56;;;;;;;;;13.00;9.00;;;;;;;;4979968;28;45459;-62
2022/11/11 15:02:48;;;;;;;;;8.00;8.00;;;;;;;;4980436;28;45306;-62
2022/11/11 15:05:16;;;;;;;;;10.50;10.50;;;;;;;;4978312;28;45583;-62
2022/11/11 15:07:51;;;;;;;;;9.50;8.50;;;;;;;;4980184;28;45334;-62
2022/11/11 15:10:31;;;;;;;;;9.75;9.00;;;;;;;;4980289;28;45394;-62
2022/11/11 15:12:56;;;;;;;;;12.67;10.00;;;;;;;;4980271;28;45305;-64
2022/11/11 15:15:26;;;;;;;;;9.75;9.25;;;;;;;;4980333;28;45409;-63
2022/11/11 15:17:59;;;;;;;;;8.75;7.25;;;;;;;;4980094;28;45561;-64
2022/11/11 15:20:30;;;;;;;;;8.00;7.00;;;;;;;;4980270;28;45337;-64
2022/11/11 15:23:15;;;;;;;;;9.75;9.25;;;;;;;;4980382;28;45260;-63
2022/11/11 15:25:59;;;;;;;;;8.75;8.50;;;;;;;;4980208;28;45227;-63
2022/11/11 15:28:42;;;;;;;;;7.25;7.00;;;;;;;;4979845;28;46648;-64
2022/11/11 15:31:15;;;;;;;;;10.00;10.00;;;;;;;;4979895;28;45375;-64
2022/11/11 15:33:58;;;;;;;;;9.50;8.50;;;;;;;;4980021;28;45409;-64
2022/11/11 15:36:32;;;;;;;;;11.75;11.00;;;;;;;;4980272;28;45423;-64